Time;durP1;ratioP1;P1;durP2;ratioP2;P2;SDS_P1;SDS_P2;PMS_P1;PMS_P2;Temp;Humidity;BMP_temperature;BMP_pressure;BME280_temperature;BME280_humidity;BME280_pressure;Samples;Min_cycle;Max_cycle;Signal;HPM_P1;HPM_P2
2022/08/25 00:01:36;;;;;;;17.23;12.38;;;;;;;19.18;96.09;101513.13;5116226;28;20490;-45
2022/08/25 00:04:04;;;;;;;12.93;11.15;;;;;;;19.19;96.06;101507.91;5117007;27;20027;-43
2022/08/25 00:06:30;;;;;;;13.43;12.15;;;;;;;19.16;96.10;101507.00;5116914;28;20670;-44
2022/08/25 00:08:58;;;;;;;13.43;12.07;;;;;;;19.07;96.46;101502.66;5116071;28;20032;-43
2022/08/25 00:11:25;;;;;;;12.52;11.32;;;;;;;19.06;96.02;101506.13;5116988;28;20034;-47
2022/08/25 00:13:54;;;;;;;14.40;12.90;;;;;;;19.07;96.39;101503.50;5115846;28;20028;-42
2022/08/25 00:16:20;;;;;;;13.27;11.95;;;;;;;19.05;96.44;101515.66;5116631;28;20019;-42
2022/08/25 00:18:51;;;;;;;13.30;12.00;;;;;;;19.06;96.30;101506.97;5116438;28;20031;-42
2022/08/25 00:21:17;;;;;;;12.77;11.55;;;;;;;18.98;96.06;101507.78;5116007;28;20024;-45
2022/08/25 00:23:44;;;;;;;14.43;11.07;;;;;;;18.87;96.11;101515.56;5116551;28;20034;-42
2022/08/25 00:26:10;;;;;;;12.77;11.47;;;;;;;18.90;96.25;101510.38;5116798;28;20046;-43
2022/08/25 00:28:36;;;;;;;13.05;11.43;;;;;;;18.70;96.49;101518.91;5115436;28;20470;-42
2022/08/25 00:31:02;;;;;;;13.90;12.38;;;;;;;18.62;98.04;101512.78;5116443;27;20024;-45
2022/08/25 00:33:30;;;;;;;14.25;12.20;;;;;;;18.67;97.66;101508.47;5116458;28;20027;-43
2022/08/25 00:35:56;;;;;;;14.30;12.80;;;;;;;18.69;98.26;101517.16;5115552;28;20300;-42
2022/08/25 00:38:21;;;;;;;12.98;11.68;;;;;;;18.63;97.30;101511.94;5116100;28;20118;-43
2022/08/25 00:41:04;;;;;;;17.25;12.43;;;;;;;18.59;97.49;101510.13;5115970;28;20028;-43
2022/08/25 00:43:44;;;;;;;23.88;13.20;;;;;;;18.52;98.62;101513.59;5115637;28;20034;-43
2022/08/25 00:46:19;;;;;;;14.60;12.93;;;;;;;18.48;99.13;101517.03;5116225;28;20027;-43
2022/08/25 00:48:49;;;;;;;13.23;11.77;;;;;;;18.28;98.20;101512.50;5115669;28;20486;-43
2022/08/25 00:51:20;;;;;;;14.60;13.10;;;;;;;18.39;100.00;101513.47;5115635;27;20047;-42
2022/08/25 00:53:46;;;;;;;13.82;12.43;;;;;;;18.46;100.00;101511.78;5115845;28;20042;-43
2022/08/25 00:56:13;;;;;;;15.70;14.10;;;;;;;18.45;100.00;101511.78;5115168;28;20016;-44
2022/08/25 00:58:39;;;;;;;12.77;11.48;;;;;;;18.25;99.19;101504.66;5115847;28;20169;-45
2022/08/25 01:01:05;;;;;;;13.52;12.23;;;;;;;18.32;99.46;101514.31;5116023;28;20028;-42
2022/08/25 01:03:32;;;;;;;15.05;13.27;;;;;;;18.19;99.92;101502.91;5115101;28;20451;-42
2022/08/25 01:06:00;;;;;;;15.10;13.50;;;;;;;18.22;99.48;101505.53;5115879;28;20085;-45
2022/08/25 01:08:28;;;;;;;16.13;14.45;;;;;;;18.21;99.82;101502.91;5115697;28;20088;-44
2022/08/25 01:10:57;;;;;;;15.05;13.45;;;;;;;18.20;99.39;101503.75;5114648;27;20031;-44
2022/08/25 01:13:30;;;;;;;16.92;14.75;;;;;;;18.20;100.00;101501.16;5115863;28;20023;-43
2022/08/25 01:15:56;;;;;;;15.80;14.23;;;;;;;18.19;99.54;101507.22;5115275;28;20028;-43
2022/08/25 01:18:22;;;;;;;15.80;14.25;;;;;;;18.20;99.80;101496.78;5115103;28;20030;-42
2022/08/25 01:20:50;;;;;;;16.30;14.70;;;;;;;18.15;99.91;101508.06;5115244;28;20031;-42
2022/08/25 01:23:16;;;;;;;16.98;15.38;;;;;;;18.02;100.00;101507.94;5115173;28;20411;-43
2022/08/25 01:25:50;;;;;;;17.77;16.13;;;;;;;18.07;100.00;101505.38;5114848;28;20080;-44
2022/08/25 01:28:16;;;;;;;19.25;17.20;;;;;;;18.01;100.00;101501.00;5115511;28;20106;-45
2022/08/25 01:30:42;;;;;;;19.02;17.02;;;;;;;17.92;100.00;101506.97;5114870;28;20024;-42
2022/08/25 01:33:10;;;;;;;18.60;16.70;;;;;;;17.96;100.00;101510.50;5114684;28;20020;-42
2022/08/25 01:35:37;;;;;;;19.05;17.17;;;;;;;17.99;100.00;101512.28;5115070;28;20103;-43
2022/08/25 01:38:05;;;;;;;19.40;17.27;;;;;;;17.98;99.66;101507.91;5114710;28;20044;-42
2022/08/25 01:40:30;;;;;;;18.65;16.90;;;;;;;18.01;99.61;101508.81;5114621;28;20030;-46
2022/08/25 01:43:14;;;;;;;18.90;16.98;;;;;;;17.96;99.02;101513.13;5115027;28;20027;-47
2022/08/25 01:45:43;;;;;;;19.08;17.13;;;;;;;18.01;97.90;101506.22;5114014;28;20024;-42
2022/08/25 01:48:09;;;;;;;19.10;16.35;;;;;;;17.98;98.75;101506.16;5115013;27;20152;-42
2022/08/25 01:50:35;;;;;;;20.15;17.33;;;;;;;17.99;97.35;101507.06;5114613;28;20019;-42
2022/08/25 01:53:09;;;;;;;19.58;17.67;;;;;;;17.94;97.79;101515.69;5114262;28;20024;-42
2022/08/25 01:55:50;;;;;;;19.90;16.95;;;;;;;17.72;98.34;101504.13;5114673;28;20104;-43
2022/08/25 01:58:21;;;;;;;17.83;16.02;;;;;;;17.72;97.42;101509.34;5114007;28;20111;-46
2022/08/25 02:00:49;;;;;;;18.17;16.20;;;;;;;17.64;97.82;101503.19;5113744;28;20043;-45
2022/08/25 02:03:15;;;;;;;18.50;16.58;;;;;;;17.69;96.60;101504.13;5114905;28;20071;-42
2022/08/25 02:05:41;;;;;;;18.73;16.65;;;;;;;17.65;96.57;101502.34;5114051;28;20396;-44
2022/08/25 02:08:06;;;;;;;18.83;17.02;;;;;;;17.74;95.78;101507.66;5114211;28;20062;-42
2022/08/25 02:10:32;;;;;;;19.27;17.38;;;;;;;17.57;95.34;101504.88;5114454;28;20047;-44
2022/08/25 02:12:58;;;;;;;18.42;16.58;;;;;;;17.65;94.68;101509.28;5114319;28;20027;-45
2022/08/25 02:15:23;;;;;;;20.15;16.67;;;;;;;17.59;94.93;101499.66;5113845;28;20040;-44
2022/08/25 02:17:49;;;;;;;20.20;18.05;;;;;;;17.56;94.46;101502.25;5114300;28;20027;-43
2022/08/25 02:20:14;;;;;;;18.70;16.95;;;;;;;17.53;94.44;101502.19;5114235;28;20054;-42
2022/08/25 02:22:39;;;;;;;19.58;17.58;;;;;;;17.56;94.87;101507.47;5113630;28;20031;-43
2022/08/25 02:25:05;;;;;;;18.50;16.60;;;;;;;17.60;94.44;101504.03;5114398;28;20460;-45
2022/08/25 02:27:30;;;;;;;19.92;16.77;;;;;;;17.54;94.49;101498.75;5113446;28;20034;-43
2022/08/25 02:29:55;;;;;;;20.98;17.80;;;;;;;17.51;94.84;101502.19;5113906;28;20115;-43
2022/08/25 02:32:21;;;;;;;19.52;17.52;;;;;;;17.34;95.20;101502.00;5114078;28;20059;-43
2022/08/25 02:34:46;;;;;;;18.17;16.52;;;;;;;17.41;94.54;101498.59;5113153;28;20484;-43
2022/08/25 02:37:12;;;;;;;19.27;17.35;;;;;;;17.43;94.93;101501.22;5113981;28;20082;-42
2022/08/25 02:39:38;;;;;;;17.95;16.05;;;;;;;17.38;95.45;101498.56;5113765;28;20027;-45
2022/08/25 02:42:03;;;;;;;19.20;17.05;;;;;;;17.41;95.32;101490.75;5113176;28;20473;-42
2022/08/25 02:44:30;;;;;;;19.77;17.73;;;;;;;17.30;94.80;101487.19;5113873;28;20028;-43
2022/08/25 02:46:55;;;;;;;18.80;16.90;;;;;;;17.30;94.97;101495.00;5113843;28;20024;-42
2022/08/25 02:49:20;;;;;;;19.17;17.20;;;;;;;17.27;94.89;101489.72;5113348;28;20382;-42
2022/08/25 02:51:45;;;;;;;18.80;16.88;;;;;;;17.26;95.35;101491.47;5113482;28;20122;-42
2022/08/25 02:54:11;;;;;;;19.98;16.60;;;;;;;17.25;95.24;101486.25;5113676;28;20459;-43
2022/08/25 02:56:36;;;;;;;22.20;17.65;;;;;;;17.22;95.19;101491.41;5113010;28;20028;-43
2022/08/25 02:59:02;;;;;;;19.95;17.88;;;;;;;17.16;94.88;101488.72;5113577;28;20032;-42
2022/08/25 03:01:29;;;;;;;20.45;18.08;;;;;;;16.94;95.13;101478.91;5113649;28;20053;-42
2022/08/25 03:03:55;;;;;;;19.92;17.77;;;;;;;17.02;94.70;101475.53;5113036;28;20066;-43
2022/08/25 03:06:23;;;;;;;18.80;16.98;;;;;;;17.01;94.72;101484.22;5113735;28;20034;-44
2022/08/25 03:08:49;;;;;;;19.27;17.30;;;;;;;16.91;94.65;101488.41;5112997;28;20030;-44
2022/08/25 03:11:14;;;;;;;20.10;17.95;;;;;;;16.85;95.89;101477.88;5112189;28;20031;-44
2022/08/25 03:13:39;;;;;;;20.92;18.77;;;;;;;16.90;95.92;101476.19;5113201;28;20026;-42
2022/08/25 03:16:06;;;;;;;19.98;17.90;;;;;;;16.85;95.70;101480.47;5113461;28;20046;-43
2022/08/25 03:18:31;;;;;;;20.92;18.75;;;;;;;16.85;96.04;101475.25;5112939;28;20032;-42
2022/08/25 03:20:57;;;;;;;21.70;18.25;;;;;;;16.80;96.04;101472.63;5113486;28;20051;-42
2022/08/25 03:23:23;;;;;;;20.10;18.20;;;;;;;16.76;96.34;101470.81;5113101;28;20032;-42
2022/08/25 03:28:32;;;;;;;21.75;19.50;;;;;;;16.66;96.53;101459.41;5113152;28;20039;-42
2022/08/25 03:31:00;;;;;;;21.63;19.30;;;;;;;16.61;96.21;101466.25;5112526;28;20027;-43
2022/08/25 03:33:28;;;;;;;21.73;19.33;;;;;;;16.61;96.62;101459.31;5113273;28;20509;-42
2022/08/25 03:35:54;;;;;;;21.80;18.80;;;;;;;16.58;96.35;101455.81;5113155;28;20031;-42
2022/08/25 03:38:20;;;;;;;20.70;18.63;;;;;;;16.57;95.92;101454.06;5112403;28;20036;-42
2022/08/25 03:40:45;;;;;;;20.65;18.60;;;;;;;16.57;95.90;101454.94;5113386;28;20084;-42
2022/08/25 03:43:11;;;;;;;20.50;18.30;;;;;;;16.54;95.79;101470.50;5113420;28;20050;-43
2022/08/25 03:45:44;;;;;;;19.65;17.55;;;;;;;16.52;96.00;101459.19;5112645;28;20387;-42
2022/08/25 03:48:10;;;;;;;24.58;19.45;;;;;;;16.48;96.49;101457.41;5113189;28;20519;-42
2022/08/25 03:50:36;;;;;;;21.02;18.83;;;;;;;16.44;96.37;101459.06;5112769;28;20028;-43
2022/08/25 03:53:01;;;;;;;21.27;19.20;;;;;;;16.33;96.53;101454.56;5112482;28;20031;-42
2022/08/25 03:55:27;;;;;;;21.27;19.08;;;;;;;16.27;96.62;101450.16;5113060;28;20107;-43
2022/08/25 03:57:53;;;;;;;21.55;19.45;;;;;;;16.27;96.30;101445.81;5112762;28;20031;-45
2022/08/25 04:00:20;;;;;;;23.42;19.35;;;;;;;16.12;96.97;101451.63;5112524;28;20035;-43
2022/08/25 04:02:46;;;;;;;22.55;20.08;;;;;;;16.08;96.84;101444.63;5113094;28;20068;-42
2022/08/25 04:05:11;;;;;;;22.20;19.38;;;;;;;16.15;96.98;101448.22;5112835;28;20027;-42
2022/08/25 04:07:37;;;;;;;22.08;19.95;;;;;;;16.12;96.65;101433.44;5112266;28;20020;-44
2022/08/25 04:10:07;;;;;;;25.23;19.80;;;;;;;16.02;97.79;101441.94;5112813;28;20031;-44
2022/08/25 04:12:33;;;;;;;22.55;20.35;;;;;;;16.07;97.26;101432.47;5112390;28;20028;-44
2022/08/25 04:14:58;;;;;;;23.23;20.80;;;;;;;16.05;97.79;101433.31;5112546;28;20020;-43
2022/08/25 04:17:24;;;;;;;22.67;20.33;;;;;;;16.02;97.17;101434.13;5113036;28;20489;-42
2022/08/25 04:19:49;;;;;;;25.23;21.80;;;;;;;16.03;97.24;101435.88;5112471;28;20028;-42
2022/08/25 04:22:15;;;;;;;23.98;20.20;;;;;;;16.12;97.79;101438.63;5114902;28;20501;-43
2022/08/25 04:24:40;;;;;;;22.15;19.80;;;;;;;16.10;98.19;101444.66;5116363;28;20107;-43
2022/08/25 04:27:05;;;;;;;20.08;17.02;;;;;;;16.21;97.81;101440.50;5115881;28;20039;-44
2022/08/25 04:29:31;;;;;;;19.30;17.38;;;;;;;16.30;96.61;101435.44;5116720;28;20028;-47
2022/08/25 04:31:56;;;;;;;21.08;17.38;;;;;;;16.27;97.07;101439.75;5116428;28;20034;-46
2022/08/25 04:34:24;;;;;;;18.52;16.35;;;;;;;16.24;96.86;101440.56;5115724;28;20631;-42
2022/08/25 04:36:50;;;;;;;18.63;16.73;;;;;;;16.22;96.25;101431.88;5115976;28;20046;-46
2022/08/25 04:39:16;;;;;;;20.63;16.38;;;;;;;16.17;96.21;101430.91;5116364;28;20379;-45
2022/08/25 04:41:41;;;;;;;19.77;16.60;;;;;;;16.15;96.14;101429.13;5115449;28;20030;-44
2022/08/25 04:44:07;;;;;;;20.25;16.23;;;;;;;16.20;95.01;101430.09;5116405;28;20028;-42
2022/08/25 04:46:33;;;;;;;17.63;15.82;;;;;;;16.14;94.69;101428.28;5115793;27;20023;-43
2022/08/25 04:49:01;;;;;;;18.35;15.85;;;;;;;16.13;94.58;101422.19;5115633;28;20038;-46
2022/08/25 04:51:36;;;;;;;18.40;16.15;;;;;;;16.13;95.46;101422.19;5115991;28;20391;-44
2022/08/25 04:54:04;;;;;;;17.60;15.70;;;;;;;16.09;94.75;101420.38;5116015;28;20024;-41
2022/08/25 04:56:33;;;;;;;17.33;15.38;;;;;;;16.16;93.58;101425.69;5115650;28;20020;-44
2022/08/25 04:59:04;;;;;;;18.05;15.40;;;;;;;16.13;93.96;101421.31;5115954;28;20395;-43
2022/08/25 05:01:30;;;;;;;20.58;15.70;;;;;;;16.15;95.39;101413.53;5115653;28;20027;-44
2022/08/25 05:04:02;;;;;;;18.48;16.45;;;;;;;16.08;94.70;101421.22;5115059;28;20020;-42
2022/08/25 05:06:28;;;;;;;19.23;15.70;;;;;;;16.10;94.29;101410.84;5116078;28;20102;-47
2022/08/25 05:08:55;;;;;;;19.13;15.20;;;;;;;16.10;93.58;101414.34;5115453;28;20103;-45
2022/08/25 05:11:21;;;;;;;17.73;15.43;;;;;;;16.18;94.09;101426.56;5115154;28;20511;-44
2022/08/25 05:13:49;;;;;;;22.88;14.63;;;;;;;16.24;93.23;101430.16;5115472;28;20067;-43
2022/08/25 05:16:15;;;;;;;18.05;15.10;;;;;;;16.22;94.26;101439.66;5114936;28;20034;-42
2022/08/25 05:18:40;;;;;;;17.52;15.15;;;;;;;16.21;93.61;101434.44;5115132;28;20032;-43
2022/08/25 05:21:12;;;;;;;17.48;14.70;;;;;;;16.20;92.53;101437.88;5115625;28;20027;-42
2022/08/25 05:23:38;;;;;;;19.52;15.00;;;;;;;16.25;92.68;101447.50;5114608;28;20033;-42
2022/08/25 05:26:15;;;;;;;15.88;14.18;;;;;;;16.35;92.93;101448.53;5115323;28;20482;-45
2022/08/25 05:28:41;;;;;;;18.95;14.63;;;;;;;16.44;92.06;101446.06;5115025;28;20028;-43
2022/08/25 05:31:08;;;;;;;21.55;14.63;;;;;;;16.50;91.12;101453.09;5114731;28;20034;-45
2022/08/25 05:33:34;;;;;;;15.27;13.48;;;;;;;16.60;89.93;101454.09;5113843;28;20550;-45
2022/08/25 05:36:00;;;;;;;20.85;13.73;;;;;;;16.73;89.31;101453.44;5114964;28;20023;-43
2022/08/25 05:38:26;;;;;;;14.95;13.07;;;;;;;16.84;89.85;101452.72;5114480;28;20069;-45
2022/08/25 05:40:56;;;;;;;15.07;13.13;;;;;;;16.93;90.64;101458.06;5114922;28;20375;-46
2022/08/25 05:43:21;;;;;;;15.35;13.40;;;;;;;16.96;90.71;101458.09;5114933;28;20077;-42
2022/08/25 05:45:46;;;;;;;17.70;13.60;;;;;;;17.05;89.89;101459.94;5114091;28;20438;-46
2022/08/25 05:48:12;;;;;;;19.90;15.10;;;;;;;17.08;92.23;101457.38;5115181;28;20015;-45
2022/08/25 05:50:38;;;;;;;19.00;15.55;;;;;;;17.15;93.01;101458.34;5114643;28;20433;-42
2022/08/25 05:53:03;;;;;;;19.52;17.27;;;;;;;17.18;93.47;101463.56;5114374;28;20424;-43
2022/08/25 05:55:29;;;;;;;21.30;16.88;;;;;;;17.23;92.97;101467.13;5114966;28;20470;-45
2022/08/25 05:57:54;;;;;;;19.65;16.73;;;;;;;17.31;93.83;101465.47;5114388;28;20027;-46
2022/08/25 06:00:19;;;;;;;20.83;18.45;;;;;;;17.35;95.64;101467.28;5114008;28;20031;-43
2022/08/25 06:02:47;;;;;;;19.65;17.40;;;;;;;17.43;94.84;101463.00;5114711;28;20028;-47
2022/08/25 06:05:17;;;;;;;19.23;17.17;;;;;;;17.52;94.36;101469.16;5114584;28;20035;-44
2022/08/25 06:07:44;;;;;;;23.73;17.67;;;;;;;17.66;93.74;101470.19;5113856;28;20028;-43
2022/08/25 06:10:10;;;;;;;26.38;16.60;;;;;;;17.79;90.06;101471.19;5114713;28;20085;-42
2022/08/25 06:12:36;;;;;;;23.48;15.40;;;;;;;17.91;89.10;101473.06;5113607;28;20028;-46
2022/08/25 06:15:04;;;;;;;22.50;15.98;;;;;;;18.01;89.52;101474.91;5114355;28;20420;-43
2022/08/25 06:17:29;;;;;;;18.40;11.55;;;;;;;18.24;81.28;101471.59;5114364;28;20028;-44
2022/08/25 06:19:55;;;;;;;17.08;10.95;;;;;;;18.43;77.99;101470.88;5113274;28;20106;-43
2022/08/25 06:22:21;;;;;;;15.95;10.85;;;;;;;18.65;77.30;101467.56;5114198;28;20027;-46
2022/08/25 06:24:46;;;;;;;22.02;11.57;;;;;;;18.75;77.51;101469.34;5113851;28;20494;-42
2022/08/25 06:27:12;;;;;;;18.38;11.35;;;;;;;18.90;77.67;101465.97;5113728;27;20024;-44
2022/08/25 06:29:37;;;;;;;17.42;11.85;;;;;;;18.96;75.50;101466.00;5113878;28;20043;-43
2022/08/25 06:32:03;;;;;;;14.90;11.25;;;;;;;19.12;75.18;101472.19;5114228;28;20020;-46
2022/08/25 06:34:28;;;;;;;15.10;10.93;;;;;;;19.28;73.46;101469.63;5113679;28;20028;-45
2022/08/25 06:36:54;;;;;;;17.00;10.68;;;;;;;19.44;71.36;101471.41;5113847;28;20047;-44
2022/08/25 06:39:21;;;;;;;15.55;10.40;;;;;;;19.60;71.80;101472.34;5113640;28;20032;-45
2022/08/25 06:41:52;;;;;;;14.80;9.90;;;;;;;19.73;72.09;101475.84;5113122;27;20471;-42
2022/08/25 06:44:17;;;;;;;14.30;9.95;;;;;;;19.88;70.17;101475.00;5113610;28;20042;-44
2022/08/25 06:46:42;;;;;;;13.10;9.02;;;;;;;20.01;69.15;101471.53;5113563;28;20028;-44
2022/08/25 06:49:08;;;;;;;14.35;9.00;;;;;;;20.14;69.35;101472.41;5113469;28;20030;-43
2022/08/25 06:51:36;;;;;;;14.10;8.80;;;;;;;20.27;68.85;101470.66;5113653;28;20391;-44
2022/08/25 06:54:04;;;;;;;14.50;8.75;;;;;;;20.42;68.92;101476.75;5113546;28;20103;-45
2022/08/25 06:56:29;;;;;;;10.55;7.78;;;;;;;20.50;67.51;101469.75;5113098;28;20023;-45
2022/08/25 06:58:54;;;;;;;11.85;8.07;;;;;;;20.53;69.16;101475.00;5113615;28;20023;-42
2022/08/25 07:01:24;;;;;;;13.85;8.45;;;;;;;20.69;68.31;101466.22;5113339;28;20054;-42
2022/08/25 07:03:50;;;;;;;10.25;7.43;;;;;;;20.87;66.22;101461.84;5112874;28;20525;-44
2022/08/25 07:06:17;;;;;;;11.32;7.07;;;;;;;20.95;65.76;101460.06;5113766;28;20052;-43
2022/08/25 07:08:43;;;;;;;17.77;7.22;;;;;;;21.13;64.97;101463.47;5113193;28;20048;-43
2022/08/25 07:11:09;;;;;;;12.35;6.60;;;;;;;21.30;64.33;101466.03;5112930;28;20070;-43
2022/08/25 07:13:36;;;;;;;12.40;6.20;;;;;;;21.50;63.31;101458.06;5113468;28;20034;-43
2022/08/25 07:16:03;;;;;;;9.38;5.28;;;;;;;21.62;61.88;101458.00;5112838;28;20081;-46
2022/08/25 07:18:28;;;;;;;9.15;5.40;;;;;;;21.80;61.26;101461.38;5113611;28;20030;-47
2022/08/25 07:20:56;;;;;;;9.38;5.00;;;;;;;21.96;59.25;101457.75;5112915;28;20106;-43
2022/08/25 07:23:22;;;;;;;8.73;4.28;;;;;;;22.11;59.57;101455.88;5112992;28;20020;-48
2022/08/25 07:25:49;;;;;;;10.23;4.75;;;;;;;22.22;60.79;101455.78;5113124;28;20034;-43
2022/08/25 07:28:16;;;;;;;10.85;4.63;;;;;;;22.44;59.25;101454.72;5113342;28;20020;-44
2022/08/25 07:30:42;;;;;;;9.43;5.15;;;;;;;22.51;58.19;101456.38;5112674;28;20054;-44
2022/08/25 07:33:08;;;;;;;10.85;4.65;;;;;;;22.64;59.39;101456.28;5113492;28;20030;-43
2022/08/25 07:35:35;;;;;;;9.75;4.38;;;;;;;22.77;57.50;101457.00;5112856;28;20032;-43
2022/08/25 07:38:00;;;;;;;14.48;4.85;;;;;;;22.82;57.14;101463.06;5112686;28;20047;-48
2022/08/25 07:40:29;;;;;;;10.60;4.60;;;;;;;22.96;56.60;101457.66;5113109;28;20359;-45
2022/08/25 07:42:57;;;;;;;9.68;4.30;;;;;;;23.12;56.97;101442.56;5112626;28;20464;-43
2022/08/25 07:45:29;;;;;;;10.35;4.40;;;;;;;23.11;56.37;101448.69;5112753;28;20026;-45
2022/08/25 07:48:05;;;;;;;10.02;3.67;;;;;;;23.25;56.51;101448.53;5113067;28;20024;-45
2022/08/25 07:50:31;;;;;;;9.25;3.80;;;;;;;23.40;54.33;101450.97;5112980;28;20032;-43
2022/08/25 07:52:57;;;;;;;9.55;4.15;;;;;;;23.52;54.71;101452.53;5112416;28;20072;-43
2022/08/25 07:55:24;;;;;;;8.38;4.20;;;;;;;23.55;54.39;101442.00;5113332;28;20531;-44
2022/08/25 07:57:51;;;;;;;8.38;3.75;;;;;;;23.66;55.25;101447.06;5116275;28;20455;-44
2022/08/25 08:00:16;;;;;;;11.57;4.50;;;;;;;23.82;54.72;101443.31;5116517;28;20076;-46
2022/08/25 08:02:42;;;;;;;9.82;4.47;;;;;;;23.97;52.83;101450.09;5116894;28;20023;-44
2022/08/25 08:05:09;;;;;;;12.15;4.20;;;;;;;24.04;51.97;101440.38;5116219;27;20016;-46
2022/08/25 08:07:34;;;;;;;9.67;4.10;;;;;;;24.10;52.36;101444.63;5116507;28;20485;-46
2022/08/25 08:10:00;;;;;;;8.48;3.80;;;;;;;24.24;52.20;101445.25;5116863;28;20032;-47
2022/08/25 08:12:25;;;;;;;9.75;4.57;;;;;;;24.42;50.70;101425.63;5116454;28;20032;-44
2022/08/25 08:14:52;;;;;;;8.52;3.83;;;;;;;24.60;50.76;101439.34;5116675;27;20019;-44
2022/08/25 08:17:19;;;;;;;8.00;3.88;;;;;;;24.77;50.71;101441.66;5116666;28;20015;-44
2022/08/25 08:19:45;;;;;;;6.75;4.25;;;;;;;24.85;50.89;101433.59;5115955;28;20103;-43
2022/08/25 08:22:13;;;;;;;13.88;4.30;;;;;;;24.98;52.31;101429.78;5116701;28;20028;-46
2022/08/25 08:24:39;;;;;;;8.23;4.07;;;;;;;25.23;50.08;101431.88;5116361;27;20103;-48
2022/08/25 08:27:07;;;;;;;9.23;3.83;;;;;;;25.42;50.61;101435.00;5116161;28;20145;-47
2022/08/25 08:29:35;;;;;;;10.00;3.40;;;;;;;25.59;49.78;101440.78;5116242;28;20475;-43
2022/08/25 08:32:02;;;;;;;8.57;3.60;;;;;;;25.79;48.61;101442.06;5116278;28;20035;-43
2022/08/25 08:34:28;;;;;;;8.23;3.88;;;;;;;25.80;48.98;101434.09;5115839;28;20035;-45
2022/08/25 08:36:53;;;;;;;8.37;4.20;;;;;;;25.89;49.45;101435.66;5116169;28;20044;-43
2022/08/25 08:39:19;;;;;;;9.23;4.00;;;;;;;26.03;50.40;101431.78;5116381;28;20150;-47
2022/08/25 08:42:17;;;;;;;9.45;4.47;;;;;;;26.06;51.10;101431.75;5115709;28;20148;-44
2022/08/25 08:44:45;;;;;;;8.70;4.30;;;;;;;26.19;48.57;101433.16;5115954;28;20471;-47
2022/08/25 08:47:51;;;;;;;10.90;4.68;;;;;;;26.37;48.77;101428.28;5115850;28;20032;-45
2022/08/25 08:50:23;;;;;;;;;;;;;;;26.49;48.50;101430.56;5085923;28;20159;-48
2022/08/25 08:53:01;;;;;;;8.20;3.65;;;;;;;26.68;46.75;101430.06;5115740;28;19912;-47
2022/08/25 08:55:35;;;;;;;7.95;3.85;;;;;;;26.90;46.23;101428.53;5115441;28;20399;-44
2022/08/25 08:58:09;;;;;;;10.00;3.83;;;;;;;27.03;44.82;101425.53;5116180;28;20075;-43
2022/08/25 09:00:40;;;;;;;8.68;4.38;;;;;;;27.04;46.21;101422.00;5115496;28;20103;-45
2022/08/25 09:03:13;;;;;;;15.07;4.30;;;;;;;27.11;47.19;101424.41;5115268;28;20026;-47
2022/08/25 09:05:51;;;;;;;10.50;4.50;;;;;;;27.36;47.80;101431.56;5115633;28;20031;-45
2022/08/25 09:08:17;;;;;;;10.30;4.65;;;;;;;27.43;45.82;101419.91;5115796;28;20035;-44
2022/08/25 09:11:12;;;;;;;11.35;4.90;;;;;;;27.75;47.95;101435.66;5115135;28;20038;-45
2022/08/25 09:14:06;;;;;;;13.07;4.63;;;;;;;27.98;47.61;101431.34;5088835;28;20455;-45
2022/08/25 09:17:05;;;;;;;9.27;5.10;;;;;;;28.05;46.49;101432.91;5114985;27;20031;-43
2022/08/25 09:19:46;;;;;;;7.22;4.07;;;;;;;28.36;44.29;101424.75;5115542;28;20043;-47
2022/08/25 09:22:40;;;;;;;11.85;4.90;;;;;;;28.66;46.12;101434.31;5115332;28;20023;-44
2022/08/25 09:25:14;;;;;;;10.23;4.43;;;;;;;28.86;45.26;101431.78;5115684;28;20036;-47
2022/08/25 09:27:52;;;;;;;7.85;4.38;;;;;;;29.17;44.69;101429.75;5115063;28;20020;-49
2022/08/25 09:30:19;;;;;;;8.35;4.85;;;;;;;29.41;42.14;101433.22;5114835;28;20027;-45
2022/08/25 09:33:00;;;;;;;7.65;4.70;;;;;;;29.50;43.15;101427.56;5115123;28;20035;-45
2022/08/25 09:35:29;;;;;;;12.93;4.18;;;;;;;29.71;40.95;101430.25;5115291;28;20030;-48
2022/08/25 09:38:00;;;;;;;9.40;4.50;;;;;;;30.09;41.12;101430.44;5114207;28;20499;-43
2022/08/25 09:40:28;;;;;;;9.27;3.75;;;;;;;30.39;40.92;101422.03;5115185;28;20135;-46
2022/08/25 09:42:57;;;;;;;6.97;3.70;;;;;;;30.61;40.69;101429.06;5114520;28;20047;-46
2022/08/25 09:45:44;;;;;;;9.60;4.22;;;;;;;30.93;40.04;101422.25;5114388;28;20485;-44
2022/08/25 09:48:41;;;;;;;9.98;3.80;;;;;;;31.10;39.91;101417.97;5114915;28;20039;-43
2022/08/25 09:51:17;;;;;;;12.80;3.67;;;;;;;31.33;38.89;101423.03;5114493;28;20020;-48
2022/08/25 09:53:52;;;;;;;12.27;4.72;;;;;;;31.82;36.39;101417.06;5114660;28;20016;-44
2022/08/25 09:56:30;;;;;;;9.25;3.53;;;;;;;32.45;36.21;101414.75;5114657;28;20538;-44
2022/08/25 09:59:17;;;;;;;7.55;3.53;;;;;;;32.91;36.73;101412.28;5114106;28;20538;-46
2022/08/25 10:01:51;;;;;;;11.35;3.90;;;;;;;33.59;34.48;101410.22;5114595;28;20032;-44
2022/08/25 10:04:30;;;;;;;8.73;3.50;;;;;;;33.97;33.41;101407.06;5114419;28;20024;-44
2022/08/25 10:06:55;;;;;;;7.68;3.30;;;;;;;34.75;30.07;101398.69;5113966;28;20027;-47
2022/08/25 10:09:28;;;;;;;6.67;3.20;;;;;;;35.42;30.10;101403.31;5114309;28;20030;-45
2022/08/25 10:11:54;;;;;;;6.57;3.03;;;;;;;35.50;28.48;101391.22;5113651;28;20549;-45
2022/08/25 10:14:33;;;;;;;7.07;2.80;;;;;;;36.35;28.99;101391.63;5114535;28;20114;-46
2022/08/25 10:17:25;;;;;;;7.75;3.03;;;;;;;37.01;28.56;101388.66;5114408;28;20032;-47
2022/08/25 10:19:53;;;;;;;6.95;2.78;;;;;;;37.75;26.48;101389.47;5113136;28;20034;-44
2022/08/25 10:22:31;;;;;;;8.88;3.28;;;;;;;37.62;26.95;101381.50;5114379;28;20028;-46
2022/08/25 10:24:58;;;;;;;7.40;2.80;;;;;;;38.30;25.11;101382.47;5113987;28;20023;-49
2022/08/25 10:27:37;;;;;;;5.60;2.80;;;;;;;38.77;25.78;101386.84;5113688;28;20036;-47
2022/08/25 10:30:27;;;;;;;11.98;3.30;;;;;;;39.23;25.50;101374.94;5114395;28;20101;-45
2022/08/25 10:33:33;;;;;;;10.93;3.03;;;;;;;39.31;24.96;101372.44;5113450;28;20031;-42
2022/08/25 10:36:07;;;;;;;7.35;2.70;;;;;;;38.97;24.52;101369.00;5114678;28;20042;-41
2022/08/25 10:38:42;;;;;;;10.48;3.00;;;;;;;39.62;23.40;101371.66;5113450;28;20035;-45
2022/08/25 10:41:32;;;;;;;5.95;2.80;;;;;;;39.98;23.90;101362.22;5113222;28;20539;-42
2022/08/25 10:47:26;;;;;;;10.95;2.95;;;;;;;39.81;22.52;101346.69;5097023;28;20051;-47
2022/08/25 10:50:12;;;;;;;4.53;2.45;;;;;;;39.45;22.75;101356.94;5113512;28;20035;-46
2022/08/25 10:52:53;;;;;;;9.07;2.60;;;;;;;38.83;23.08;101340.53;5113604;28;20031;-46
2022/08/25 10:55:28;;;;;;;5.93;2.63;;;;;;;38.31;22.88;101346.50;5113361;28;20019;-46
2022/08/25 10:58:33;;;;;;;9.40;2.70;;;;;;;37.75;23.92;101349.97;5113520;28;20031;-46
2022/08/25 11:01:26;;;;;;;7.30;2.67;;;;;;;36.77;24.41;101328.69;5113220;28;20043;-46
2022/08/25 11:04:08;;;;;;;6.82;2.47;;;;;;;36.25;25.21;101328.81;5112809;28;20506;-46
2022/08/25 11:06:49;;;;;;;8.27;2.97;;;;;;;35.63;25.52;101326.91;5113124;28;20026;-46
2022/08/25 11:09:22;;;;;;;8.13;2.90;;;;;;;35.61;25.37;101321.63;5113249;28;20114;-44
2022/08/25 11:11:53;;;;;;;5.68;2.58;;;;;;;36.27;25.00;101324.22;5113548;28;20035;-45
2022/08/25 11:14:32;;;;;;;8.10;3.17;;;;;;;36.57;24.34;101326.50;5113268;28;20470;-47
2022/08/25 11:17:02;;;;;;;8.60;3.28;;;;;;;36.48;23.71;101326.34;5112894;28;20106;-43
2022/08/25 11:19:34;;;;;;;9.75;2.90;;;;;;;36.50;23.46;101321.69;5113401;28;20119;-44
2022/08/25 11:22:06;;;;;;;8.60;2.47;;;;;;;36.18;22.63;101314.13;5113092;28;20031;-45
2022/08/25 11:24:43;;;;;;;7.47;2.60;;;;;;;36.24;22.86;101308.31;5113378;28;20027;-41
2022/08/25 11:27:19;;;;;;;7.88;2.83;;;;;;;36.69;23.00;101305.94;5113198;28;20105;-42
2022/08/25 11:29:54;;;;;;;6.35;2.65;;;;;;;37.11;21.79;101302.88;5112786;28;20082;-46
2022/08/25 11:32:22;;;;;;;7.93;2.67;;;;;;;37.70;21.80;101304.63;5116565;28;20080;-45